Traverse City, MI (49684)

1:00 PM EST on December 06, 2016 (GMT -0500)
Summit View | | Change Station

Elev 980 ft 44.74 °N, 85.67 °W | Updated 31 seconds ago

Scattered Clouds
Scattered Clouds
39.4 °F
Feels Like 36 °F
N
5.0
Wind Variable Wind from SE

Today
High -- | Low -- °F
--% Chance of Precip.
Yesterday
High -- | Low -- °F
Precip. -- in
Pressure 29.75 in
Visibility 10.0 miles
Clouds Few 1800 ft
Scattered Clouds 18000 ft
Scattered Clouds 25000 ft
Windchill 36 °F
Dew Point 32 °F
Humidity 75%
Rainfall 0.00 in
Snow Depth Not available.
8:05 AM 5:02 PM
Waxing Crescent, 43% visible
METAR KTVC 061753Z 13009G14KT 10SM FEW018 SCT180 SCT250 06/M01 A2974 RMK AO2 SLP075 T00561011 10056 20011 58027
Pressure 29.75 in
Visibility 10.0 miles
Clouds Few 1800 ft
Scattered Clouds 18000 ft
Scattered Clouds 25000 ft
Windchill 36 °F
Dew Point 32 °F
Humidity 75%
Rainfall 0.00 in
Snow Depth Not available.
8:05 AM 5:02 PM
Waxing Crescent, 43% visible
METAR KTVC 061753Z 13009G14KT 10SM FEW018 SCT180 SCT250 06/M01 A2974 RMK AO2 SLP075 T00561011 10056 20011 58027

10-Day Weather Forecast

Almanac

Astronomy

Dec. 06, 2016 Rise Set
Actual Time
Civil Twilight
Nautical Twilight
Astronomical Twilight
Moon
Length of Visible Light
Length of Day
Tomorrow will be .
, % of the Moon is Illuminated

Today's Extremes

State Highs State Lows

Community

WunderPhotos

Upload Photos

1,955,986 photos uploaded!

WunderBlog® & News

Nearby

Air Quality

  Air Quality AQ Index Pollutant
Not available.

Snow Depth

Station Depth Elevation

Earthquake Activity

City Distance Mag. Time & Date
Minimum magnitude displayed is 2.5.

Coastal Water Temperatures

Place Temperature

Stations

Nearby Weather Stations

Station Location Temp. Windchill Dew Point Humidity Wind Precip. Elev Updated Type
                   

Watches & Warnings

There are currently no watches in effect.